Time;durP1;ratioP1;P1;durP2;ratioP2;P2;SDS_P1;SDS_P2;PMS_P1;PMS_P2;Temp;Humidity;BMP_temperature;BMP_pressure;BME280_temperature;BME280_humidity;BME280_pressure;Samples;Min_cycle;Max_cycle;Signal;HPM_P1;HPM_P2
2022/10/29 00:08:45;;;;;;;7.22;3.40;;;;;;;11.48;100.00;98537.59;18566677;31;20141;-61
2022/10/29 00:18:47;;;;;;;8.68;3.65;;;;;;;11.38;100.00;98526.62;18566144;32;20067;-63
2022/10/29 00:28:55;;;;;;;6.57;3.65;;;;;;;11.32;100.00;98519.53;18565680;32;20060;-63
2022/10/29 00:38:58;;;;;;;5.53;3.33;;;;;;;11.19;100.00;98516.13;18564751;32;20056;-62
2022/10/29 00:49:01;;;;;;;7.45;3.70;;;;;;;11.16;100.00;98511.22;18564437;32;20334;-62
2022/10/29 00:59:05;;;;;;;6.07;3.20;;;;;;;11.08;100.00;98506.25;18563765;32;20086;-63
2022/10/29 01:09:08;;;;;;;6.37;3.40;;;;;;;10.99;100.00;98497.75;18563275;32;20104;-61
2022/10/29 01:19:46;;;;;;;6.07;2.87;;;;;;;10.95;100.00;98518.28;18547902;32;20079;-61
2022/10/29 01:30:19;;;;;;;6.65;3.67;;;;;;;10.92;100.00;98507.97;18534912;32;20049;-63
2022/10/29 01:40:24;;;;;;;7.40;3.03;;;;;;;10.92;100.00;98494.44;18547583;32;20071;-63
2022/10/29 01:50:28;;;;;;;5.80;2.95;;;;;;;10.85;100.00;98499.19;18560865;32;20045;-63
2022/10/29 02:00:43;;;;;;;4.77;2.90;;;;;;;10.79;100.00;98495.62;18560776;32;20090;-63
2022/10/29 02:11:10;;;;;;;5.17;2.67;;;;;;;10.66;100.00;98475.19;18560528;32;20071;-64
2022/10/29 02:21:17;;;;;;;4.83;2.90;;;;;;;10.55;100.00;98480.69;18560254;32;20052;-63
2022/10/29 02:31:19;;;;;;;6.57;3.10;;;;;;;10.43;100.00;98478.91;18565593;32;20057;-63
2022/10/29 02:41:22;;;;;;;5.87;2.77;;;;;;;10.35;100.00;98463.13;18420848;32;20396;-61
2022/10/29 02:51:24;;;;;;;5.23;2.57;;;;;;;10.27;100.00;98455.41;18419567;32;20073;-62
2022/10/29 03:01:26;;;;;;;7.37;2.77;;;;;;;10.18;100.00;98455.84;18432048;32;20069;-61
2022/10/29 03:11:29;;;;;;;7.10;3.40;;;;;;;10.19;100.00;98448.53;18489537;32;20058;-61
2022/10/29 03:21:32;;;;;;;5.93;3.30;;;;;;;10.11;100.00;98430.87;18366442;32;20058;-61
2022/10/29 03:31:34;;;;;;;5.43;3.40;;;;;;;10.04;100.00;98424.81;18366250;32;20125;-61
2022/10/29 03:41:37;;;;;;;6.73;3.23;;;;;;;9.98;100.00;98425.81;18365282;32;20073;-61
2022/10/29 03:51:40;;;;;;;4.73;2.93;;;;;;;9.95;100.00;98418.22;18384958;32;20057;-61
2022/10/29 04:01:43;;;;;;;9.10;3.30;;;;;;;9.86;100.00;98422.38;18502544;32;20433;-61
2022/10/29 04:11:46;;;;;;;6.10;2.63;;;;;;;9.84;100.00;98425.34;18500737;32;20061;-61
2022/10/29 04:21:49;;;;;;;8.17;3.43;;;;;;;9.83;100.00;98419.09;18500984;32;20057;-61
2022/10/29 04:32:14;;;;;;;6.97;3.10;;;;;;;9.79;100.00;98419.84;18499969;32;20082;-61
2022/10/29 04:42:17;;;;;;;5.90;3.55;;;;;;;9.76;100.00;98426.56;18361781;32;20073;-61
2022/10/29 04:52:19;;;;;;;8.40;3.27;;;;;;;9.71;100.00;98428.34;18360709;32;20070;-61
2022/10/29 05:02:21;;;;;;;10.47;2.77;;;;;;;9.65;100.00;98427.47;18360799;32;20219;-61
2022/10/29 05:12:24;;;;;;;5.90;3.00;;;;;;;9.54;100.00;98425.63;18379858;32;20045;-62
2022/10/29 05:22:27;;;;;;;8.13;2.73;;;;;;;9.49;100.00;98419.09;18497585;32;20061;-61
2022/10/29 05:32:30;;;;;;;5.17;3.20;;;;;;;9.53;100.00;98407.81;18496890;32;20045;-61
2022/10/29 05:42:36;;;;;;;7.73;4.00;;;;;;;9.48;100.00;98398.56;18496686;32;20057;-61
2022/10/29 05:52:40;;;;;;;7.43;4.00;;;;;;;9.48;100.00;98390.47;18421822;32;20516;-61
2022/10/29 06:02:43;;;;;;;8.80;3.47;;;;;;;9.46;100.00;98387.19;18293973;32;20096;-62
2022/10/29 06:12:46;;;;;;;8.00;4.57;;;;;;;9.46;100.00;98392.59;18293672;32;20077;-61
2022/10/29 06:22:56;;;;;;;4.73;3.70;;;;;;;9.45;100.00;98385.53;18344005;32;20147;-61
2022/10/29 06:32:59;;;;;;;5.57;3.80;;;;;;;9.50;100.00;98387.53;18396003;32;20105;-62
2022/10/29 06:43:05;;;;;;;4.60;2.80;;;;;;;9.58;100.00;98386.28;18420814;32;20148;-62
2022/10/29 06:53:11;;;;;;;6.17;3.20;;;;;;;9.62;100.00;98390.97;18420139;32;20066;-62
2022/10/29 07:03:16;;;;;;;7.37;3.13;;;;;;;9.69;100.00;98395.38;18418650;32;20103;-61
2022/10/29 07:13:19;;;;;;;5.47;3.13;;;;;;;9.76;100.00;98390.63;18493520;32;20075;-61
2022/10/29 07:23:21;;;;;;;9.00;3.90;;;;;;;9.91;100.00;98404.38;18430385;32;20114;-64
2022/10/29 07:33:31;;;;;;;9.73;5.03;;;;;;;10.12;100.00;98399.25;18429962;32;20152;-61
2022/10/29 07:43:33;;;;;;;8.47;4.33;;;;;;;10.36;100.00;98412.56;18429586;32;20447;-61
2022/10/29 07:53:36;;;;;;;6.37;4.20;;;;;;;10.68;100.00;98401.91;18511880;32;20141;-61
2022/10/29 08:03:38;;;;;;;7.07;4.50;;;;;;;11.12;100.00;98411.84;18567201;32;20056;-61
2022/10/29 08:13:41;;;;;;;7.05;4.07;;;;;;;11.61;100.00;98422.56;18552683;32;20049;-61
2022/10/29 08:23:44;;;;;;;6.05;4.12;;;;;;;12.15;100.00;98418.13;18551877;32;20102;-61
2022/10/29 08:33:47;;;;;;;7.73;4.30;;;;;;;12.67;100.00;98403.72;18565056;32;20364;-61
2022/10/29 08:44:27;;;;;;;7.32;4.62;;;;;;;13.21;100.00;98399.81;18564551;32;20437;-61
2022/10/29 08:54:34;;;;;;;6.18;3.97;;;;;;;13.70;100.00;98403.94;18563602;31;20049;-61
2022/10/29 09:04:37;;;;;;;7.35;4.10;;;;;;;14.16;100.00;98403.06;18549573;32;20096;-62
2022/10/29 09:14:54;;;;;;;7.47;3.97;;;;;;;14.55;100.00;98405.12;18423830;32;20073;-62
2022/10/29 09:25:22;;;;;;;5.20;3.42;;;;;;;14.95;100.00;98404.44;18423167;32;20077;-62
2022/10/29 09:35:43;;;;;;;9.00;3.58;;;;;;;15.29;100.00;98422.75;18422709;32;20459;-62
2022/10/29 09:46:11;;;;;;;12.35;4.05;;;;;;;15.68;100.00;98428.19;18454943;32;20116;-61
2022/10/29 09:56:14;;;;;;;6.70;3.83;;;;;;;15.93;100.00;98429.91;18552441;32;20053;-62
2022/10/29 10:06:17;;;;;;;6.10;3.67;;;;;;;16.20;100.00;98433.25;18560514;32;20109;-61
2022/10/29 10:16:28;;;;;;;6.70;3.70;;;;;;;16.67;100.00;98425.34;18560262;32;20079;-62
2022/10/29 10:26:43;;;;;;;6.78;3.80;;;;;;;17.13;100.00;98423.97;18559881;32;20441;-62
2022/10/29 10:36:50;;;;;;;6.35;3.70;;;;;;;17.44;99.39;98425.16;18545152;32;20089;-62
2022/10/29 10:46:57;;;;;;;11.52;3.47;;;;;;;17.66;96.18;98414.72;18559690;32;20053;-62
2022/10/29 10:57:02;;;;;;;5.57;3.28;;;;;;;17.87;94.83;98406.97;18569067;32;20471;-63
2022/10/29 11:07:11;;;;;;;8.30;3.42;;;;;;;18.01;92.93;98401.56;18570992;32;20076;-62
2022/10/29 11:17:53;;;;;;;11.85;3.20;;;;;;;18.08;90.76;98397.31;18570024;32;20052;-62
2022/10/29 11:28:14;;;;;;;8.48;3.40;;;;;;;18.27;87.46;98380.00;18227342;32;20475;-62
2022/10/29 11:38:28;;;;;;;8.15;3.25;;;;;;;18.60;85.87;98379.91;18226372;32;20173;-62
2022/10/29 11:48:48;;;;;;;6.72;2.67;;;;;;;18.96;86.41;98354.50;18238741;32;20096;-62
2022/10/29 11:59:06;;;;;;;4.47;2.70;;;;;;;19.33;85.41;98351.75;18335682;32;20075;-62
2022/10/29 12:09:35;;;;;;;6.43;2.40;;;;;;;19.63;84.25;98331.78;18566989;32;20064;-62
2022/10/29 12:20:06;;;;;;;4.87;2.92;;;;;;;19.94;85.38;98317.28;18566442;32;20494;-62
2022/10/29 12:30:13;;;;;;;4.28;2.10;;;;;;;20.23;83.24;98302.22;18566293;32;20065;-62
2022/10/29 12:40:29;;;;;;;5.68;2.50;;;;;;;20.77;88.20;98292.97;18564917;32;20113;-62
2022/10/29 12:51:05;;;;;;;3.22;2.28;;;;;;;20.91;83.25;98288.16;18564278;32;20045;-62
2022/10/29 13:01:31;;;;;;;2.60;1.75;;;;;;;20.82;84.43;98271.63;18489283;32;20069;-62
2022/10/29 13:12:18;;;;;;;4.78;2.22;;;;;;;20.83;85.21;98258.72;18488113;32;20521;-62
2022/10/29 13:22:53;;;;;;;6.47;2.47;;;;;;;20.89;83.79;98251.91;18486503;32;20118;-62
2022/10/29 13:32:56;;;;;;;4.50;2.62;;;;;;;20.86;83.48;98235.25;18552103;32;20057;-62
2022/10/29 13:43:04;;;;;;;;;;;;;;;20.82;81.16;98241.41;18561778;32;20053;-62
2022/10/29 13:53:12;;;;;;;4.35;2.58;;;;;;;20.80;80.24;98226.38;18547278;32;20258;-62
2022/10/29 14:03:19;;;;;;;4.32;2.25;;;;;;;20.84;78.60;98221.84;18561023;32;20068;-62
2022/10/29 14:13:29;;;;;;;6.80;2.22;;;;;;;20.83;79.38;98206.50;18546515;32;20048;-62
2022/10/29 14:23:32;;;;;;;4.95;2.67;;;;;;;20.87;80.28;98207.47;18555429;32;20117;-62
2022/10/29 14:33:37;;;;;;;3.05;1.90;;;;;;;20.97;79.32;98204.38;18558543;32;20064;-62
2022/10/29 14:43:41;;;;;;;4.80;2.25;;;;;;;20.68;82.24;98195.94;18558202;32;20102;-62
2022/10/29 14:53:44;;;;;;;5.15;2.37;;;;;;;20.24;85.21;98194.00;18571589;32;20065;-62
2022/10/29 15:03:47;;;;;;;5.90;2.95;;;;;;;19.84;87.78;98191.31;18543930;32;20048;-62
2022/10/29 15:13:49;;;;;;;5.20;2.50;;;;;;;19.53;89.78;98191.34;18556534;32;20053;-62
2022/10/29 15:23:57;;;;;;;7.43;3.00;;;;;;;19.22;92.28;98187.50;18570011;32;20063;-62
2022/10/29 15:34:07;;;;;;;6.03;2.55;;;;;;;18.93;95.02;98194.25;18555141;32;20060;-62
2022/10/29 15:44:39;;;;;;;4.87;2.67;;;;;;;18.62;97.28;98185.94;18568443;32;20057;-62
2022/10/29 15:54:41;;;;;;;8.70;3.35;;;;;;;18.25;98.48;98171.47;18538968;32;20079;-62
2022/10/29 16:04:44;;;;;;;5.28;2.80;;;;;;;17.84;100.00;98170.41;18567567;32;20100;-62
2022/10/29 16:14:46;;;;;;;6.50;3.28;;;;;;;17.40;100.00;98178.09;18560111;32;20094;-62
2022/10/29 16:24:49;;;;;;;10.20;6.37;;;;;;;16.97;100.00;98182.97;18566600;32;20057;-62
2022/10/29 16:34:52;;;;;;;9.60;5.87;;;;;;;16.55;100.00;98172.69;18565581;32;20061;-61
2022/10/29 16:44:54;;;;;;;8.70;6.00;;;;;;;16.19;100.00;98175.12;18565094;32;20075;-62
2022/10/29 16:54:57;;;;;;;11.05;6.97;;;;;;;15.82;100.00;98168.53;18564103;32;20109;-62
2022/10/29 17:04:59;;;;;;;30.58;20.02;;;;;;;15.42;100.00;98176.88;18424609;32;20079;-62
2022/10/29 17:15:02;;;;;;;19.75;11.05;;;;;;;15.11;100.00;98174.44;18296495;32;20070;-62
2022/10/29 17:25:05;;;;;;;117.90;58.03;;;;;;;14.83;100.00;98178.81;18282986;32;20450;-62
2022/10/29 17:35:08;;;;;;;24.92;12.20;;;;;;;14.60;100.00;98185.75;18383488;32;20180;-62
2022/10/29 17:45:12;;;;;;;22.40;14.05;;;;;;;14.38;100.00;98189.72;18532371;32;20394;-61
2022/10/29 17:55:15;;;;;;;7.80;5.43;;;;;;;14.19;100.00;98189.56;18473474;32;20064;-62
2022/10/29 18:05:17;;;;;;;12.50;6.50;;;;;;;14.01;100.00;98197.25;18486224;32;20088;-62
2022/10/29 18:15:20;;;;;;;19.02;8.70;;;;;;;13.81;100.00;98195.44;18473065;32;20396;-61
2022/10/29 18:25:22;;;;;;;15.68;7.05;;;;;;;13.63;100.00;98196.06;18544557;32;20090;-62
2022/10/29 18:35:26;;;;;;;20.23;8.57;;;;;;;13.49;100.00;98204.00;18546215;32;20383;-62
2022/10/29 18:45:29;;;;;;;15.53;8.47;;;;;;;13.35;100.00;98214.59;18559671;32;20104;-62
2022/10/29 18:55:31;;;;;;;12.60;7.40;;;;;;;13.23;100.00;98210.22;18558618;32;20048;-62
2022/10/29 19:05:34;;;;;;;14.70;7.15;;;;;;;13.10;100.00;98213.53;18544937;32;20056;-62
2022/10/29 19:15:38;;;;;;;11.52;7.05;;;;;;;12.97;100.00;98211.38;18539038;32;20408;-62
2022/10/29 19:25:40;;;;;;;8.27;4.97;;;;;;;12.81;100.00;98219.53;18555743;32;20120;-62
2022/10/29 19:35:43;;;;;;;9.50;5.70;;;;;;;12.69;100.00;98232.53;18569444;32;20059;-62
2022/10/29 19:45:45;;;;;;;10.57;5.72;;;;;;;12.54;100.00;98241.47;18568786;32;20440;-62
2022/10/29 19:55:49;;;;;;;9.35;5.60;;;;;;;12.41;100.00;98250.13;18567740;32;20045;-62
2022/10/29 20:05:54;;;;;;;6.70;4.10;;;;;;;12.30;100.00;98247.34;18567507;32;20108;-62
2022/10/29 20:15:56;;;;;;;7.37;3.80;;;;;;;12.16;100.00;98249.75;18566930;32;20049;-62
2022/10/29 20:25:58;;;;;;;6.60;3.92;;;;;;;12.05;100.00;98250.00;18552161;32;20104;-61
2022/10/29 20:36:01;;;;;;;8.25;4.22;;;;;;;11.98;100.00;98244.84;18551565;32;20068;-62
2022/10/29 20:46:04;;;;;;;10.93;4.55;;;;;;;11.90;100.00;98250.72;18544388;32;20112;-62
2022/10/29 20:56:07;;;;;;;9.93;3.40;;;;;;;11.76;100.00;98243.06;18564187;32;20445;-61
2022/10/29 21:06:15;;;;;;;5.85;4.00;;;;;;;11.67;100.00;98252.78;18425076;32;20073;-62
2022/10/29 21:16:26;;;;;;;;;;;;;;;11.65;100.00;98253.03;18424619;32;20089;-61
2022/10/29 21:26:28;;;;;;;9.88;4.55;;;;;;;11.69;100.00;98254.16;18411400;32;19968;-62
2022/10/29 21:36:31;;;;;;;9.18;4.43;;;;;;;11.64;100.00;98251.41;18534143;32;20067;-62
2022/10/29 21:46:34;;;;;;;9.85;4.55;;;;;;;11.57;100.00;98247.31;18547611;32;20045;-62
2022/10/29 21:56:36;;;;;;;9.00;5.20;;;;;;;11.50;100.00;98250.25;18560752;32;20049;-61
2022/10/29 22:06:38;;;;;;;7.40;5.22;;;;;;;11.45;100.00;98239.38;18560787;32;20110;-62
2022/10/29 22:16:41;;;;;;;8.35;4.05;;;;;;;11.41;100.00;98247.19;18560406;32;20440;-62
2022/10/29 22:26:44;;;;;;;12.20;5.00;;;;;;;11.42;100.00;98243.41;18560115;32;20471;-62
2022/10/29 22:36:50;;;;;;;7.20;4.07;;;;;;;11.41;100.00;98243.69;18539045;32;20364;-61
2022/10/29 22:46:53;;;;;;;8.10;4.18;;;;;;;11.38;100.00;98236.09;18563860;32;20048;-62
2022/10/29 22:56:55;;;;;;;8.95;4.07;;;;;;;11.35;100.00;98240.13;18572118;32;20057;-61
2022/10/29 23:06:59;;;;;;;8.45;3.50;;;;;;;11.25;100.00;98226.50;18571251;32;20109;-62
2022/10/29 23:17:03;;;;;;;5.15;3.40;;;;;;;11.22;100.00;98221.62;18556292;32;20078;-61
2022/10/29 23:27:05;;;;;;;8.43;4.32;;;;;;;11.19;100.00;98221.06;18566897;32;20091;-61
2022/10/29 23:37:08;;;;;;;7.80;3.92;;;;;;;11.14;100.00;98203.97;18552171;32;20067;-61
2022/10/29 23:47:11;;;;;;;8.35;3.87;;;;;;;11.09;100.00;98217.50;18568671;32;20387;-61
2022/10/29 23:57:13;;;;;;;6.43;3.87;;;;;;;11.07;100.00;98204.19;18552787;32;20106;-61
